Weather observations for the past three days for
Glasgow, Glasgow Municipal Airport
Imperial (Metric)
Date Time (cdt) Wind (mph) Vis. (mi.) Weather Sky Cond. Temperature (ºF) Relative Humidity Wind Chill (°F) Heat Index (°F) Pressure Precipitation (in)
Air Dwpt 6 hour altimeter (in) sea level (mb) 1 hr 3 hr 6 hr
Max. Min.
03 22:35 Calm 10.00 Fair CLR 77.4 74.1 90% 79 30.02 0.0
03 22:15 Calm 10.00 Fair CLR 77.9 74.5 89% 80 30.02 0.0
03 21:55 Calm 10.00 Fair CLR 79.3 74.3 85% 83 30.02 0.0
03 21:35 Calm 10.00 Partly Cloudy SCT075 79.5 74.3 84% 84 30.02 0.0
03 21:15 Calm 10.00 Mostly Cloudy BKN075 79.2 75.4 88% 83 30.01 0.0
03 20:55 Calm 10.00 Partly Cloudy SCT075 81.5 73.6 77% 87 30.01 0.0
03 20:35 Calm 10.00 Fair CLR 82.2 73.8 76% 88 30.01 0.0
03 20:15 Calm 10.00 Fair CLR 83.3 73.6 73% 90 30 0.0
03 19:55 Calm 10.00 Fair CLR 83.7 73.6 72% 90 29.99 0.0
03 19:35 Calm 10.00 Fair CLR 83.7 73.6 72% 90 29.99 0.0
03 19:15 Calm 10.00 Partly Cloudy SCT075 86.4 73.8 66% 94 29.98 0.0
03 18:55 Calm 10.00 Partly Cloudy SCT075 89.2 72.9 99.5 89.2 59% 97 29.98 0.0
03 18:35 NE 5 10.00 Fair CLR 91.6 72.1 53% 99 29.98 0.0
03 18:15 Calm 10.00 Fair CLR 94.3 71.2 47% 102 29.97 0.0
03 17:55 Calm 10.00 Fair CLR 96.1 69.4 42% 102 29.97 0.0
03 17:35 Calm 10.00 Fair CLR 94.5 70.9 46% 102 29.97 0.0
03 17:15 Calm 10.00 Fair CLR 95 69.8 44% 101 29.97 0.0
03 16:55 SE 5 10.00 Partly Cloudy SCT070 SCT080 SCT100 96.3 70.3 43% 103 29.97 0.0
03 16:35 E 6 10.00 Mostly Cloudy BKN070 BKN080 97 70.7 43% 105 29.98 0.0
03 16:15 E 8 10.00 Mostly Cloudy BKN070 BKN090 97.7 70.9 42% 106 29.98 0.0
03 15:55 E 7 10.00 Mostly Cloudy BKN070 BKN090 98.8 69.6 39% 106 29.98 0.0
03 15:35 Calm 10.00 Mostly Cloudy BKN070 98.4 68.4 38% 104 29.99 0.0
03 15:15 E 6 10.00 Mostly Cloudy BKN070 99 69.1 38% 105 29.99 0.0
03 14:55 SE 3 10.00 Partly Cloudy SCT070 98.6 69.6 39% 106 30 0.0
03 14:35 Calm 10.00 Fair CLR 97.9 68.9 39% 104 30.01 0.0
03 14:15 NW 7 10.00 Partly Cloudy SCT065 98.1 69.4 40% 105 30.01 0.0
03 13:55 SW 5 10.00 Partly Cloudy SCT065 98.6 69.1 38% 105 30.02 0.0
03 13:35 Calm 10.00 Partly Cloudy SCT065 97 68.9 40% 103 30.02 0.0
03 13:15 Calm 10.00 Partly Cloudy SCT065 96.8 68.7 40% 103 30.03 0.0
03 12:55 Calm 10.00 Mostly Cloudy BKN065 96.4 70.2 97.9 72.5 43% 103 30.04 0.0
03 12:35 S 7 10.00 Fair CLR 97.7 70.2 41% 105 30.04 0.0
03 12:15 SW 6 10.00 Fair CLR 96.4 70.2 43% 103 30.05 0.0
03 11:55 Calm 10.00 Fair CLR 95.4 69.8 44% 102 30.05 0.0
03 11:35 W 3 10.00 Fair CLR 94.6 70 45% 101 30.06 0.0
03 11:15 Calm 10.00 Fair CLR 95 71.1 46% 102 30.07 0.0
03 10:55 Calm 10.00 Fair CLR 93.2 71.1 49% 100 30.07 0.0
03 10:35 Calm 10.00 Fair CLR 92.8 71.8 50% 101 30.07 0.0
03 10:15 Calm 10.00 Fair CLR 91 70.2 50% 97 30.08 0.0
03 09:55 Calm 10.00 Fair CLR 89.6 71.8 56% 97 30.08 0.0
03 09:35 Calm 10.00 Fair CLR 88.9 72.1 58% 96 30.07 0.0
03 09:15 Calm 10.00 Fair CLR 86 72.3 64% 93 30.08 0.0
03 08:55 Calm 10.00 Fair CLR 84.7 73 68% 91 30.08 0.0
03 08:35 Calm 10.00 Fair CLR 83.3 73 71% 89 30.08 0.0
03 08:15 Calm 10.00 Fair CLR 81.1 72.9 76% 86 30.09 0.0
03 07:55 Calm 10.00 Fair CLR 78.3 73.8 86% 81 30.09 0.0
03 07:35 Calm 10.00 Fair CLR 76.3 72.7 89% 77 30.09 0.0
03 07:15 Calm 10.00 Fair CLR 73.8 72.5 96% 30.09 0.0
03 06:55 Calm 10.00 Fair CLR 72.3 72.1 73.4 70.5 99% 30.08 0.0
03 06:35 Calm 10.00 Fair CLR 71.2 71.2 100% 30.08 0.0
03 06:15 Calm 10.00 Fair CLR 70.9 70.9 100% 30.07 0.0
03 05:55 Calm 10.00 Fair CLR 71.1 71.1 100% 30.07 0.0
03 05:35 Calm 10.00 Fair CLR 71.6 71.6 100% 30.06 0.0
03 05:15 E 3 10.00 Fair CLR 71.4 71.4 100% 30.06 0.0
03 04:55 Calm 10.00 Fair CLR 71.1 71.1 100% 30.05 0.0
03 04:35 Calm 7.00 Fair CLR 70.9 70.9 100% 30.05 0.0
03 04:15 Calm 10.00 Fair CLR 71.6 71.6 100% 30.06 0.0
03 03:55 Calm 10.00 Fair CLR 71.2 71.2 100% 30.05 0.0
03 03:35 Calm 10.00 Fair CLR 71.6 71.6 100% 30.05 0.0
03 03:15 Calm 10.00 Fair CLR 72.1 72.1 100% 30.04 0.0
03 02:55 Calm 10.00 Fair CLR 72.1 72.1 100% 30.04 0.0
03 02:35 Calm 10.00 Fair CLR 72.9 72.9 100% 30.04 0.0
03 02:15 Calm 10.00 Fair CLR 73.4 72.9 98% 30.04 0.0
03 01:55 Calm 10.00 Fair CLR 73 73 100% 30.04 0.0
03 01:35 Calm 10.00 Fair CLR 73 72.7 99% 30.04 0.0
03 01:15 Calm 10.00 Fair CLR 72.9 72.9 100% 30.04 0.0
03 00:55 Calm 10.00 Fair CLR 73.2 72 86.2 73.2 96% 30.04 0.0
03 00:35 Calm 10.00 Fair CLR 73.9 72.3 95% 30.04 0.0
03 00:15 Calm 10.00 Fair CLR 73.9 72.3 95% 30.04 0.0
02 23:55 Calm 10.00 Fair CLR 74.3 72.1 93% 30.04 0.0
02 23:35 Calm 10.00 Fair CLR 76.1 72.1 88% 76 30.04 0.0
02 23:15 Calm 10.00 Fair CLR 76.5 72.1 87% 77 30.04 0.0
02 22:55 Calm 10.00 Fair CLR 76.3 72.5 88% 77 30.04 0.0
02 22:35 Calm 10.00 Fair CLR 76.5 72.1 87% 77 30.05 0.0
02 22:15 Calm 10.00 Fair CLR 77.5 72.1 84% 79 30.05 0.0
02 21:55 Calm 10.00 Fair CLR 77.7 72.1 83% 80 30.05 0.0
02 21:35 Calm 10.00 Fair CLR 78.6 72 80% 81 30.04 0.0
02 21:15 Calm 10.00 Fair CLR 78.6 71.6 79% 81 30.04 0.0
02 20:55 Calm 10.00 Fair CLR 79.9 71.4 75% 83 30.04 0.0
02 20:35 Calm 10.00 Fair CLR 80.1 71.2 75% 84 30.04 0.0
02 20:15 Calm 10.00 Fair CLR 81.3 71.2 72% 85 30.03 0.0
02 19:55 Calm 10.00 Fair CLR 82.9 71.2 68% 88 30.03 0.0
02 19:35 Calm 10.00 Fair CLR 83.7 70.7 65% 88 30.03 0.0
02 19:15 E 3 10.00 Fair CLR 84.2 71.8 66% 90 30.03 0.0
02 18:55 Calm 10.00 Fair CLR 86.4 71.4 97.5 86.4 61% 92 30.03 0.0
02 18:35 Calm 10.00 Fair CLR 89.1 72.1 57% 96 30.03 0.0
02 18:15 Calm 10.00 Fair CLR 93 70.3 48% 99 30.03 0.0
02 17:55 SW 5 10.00 Fair CLR 95.2 67.8 41% 100 30.03 0.0
02 17:35 Calm 10.00 Fair CLR 95.5 66.9 39% 100 30.04 0.0
02 17:15 SW 3 10.00 Fair CLR 96.3 67.8 40% 101 30.04 0.0
02 16:55 SW 3 10.00 Fair CLR 96.1 67.1 39% 100 30.04 0.0
02 16:35 SW 6 10.00 Fair CLR 96.3 68 40% 101 30.04 0.0
02 16:15 S 6 10.00 Fair CLR 97.5 66.9 37% 102 30.04 0.0
02 15:55 W 6 10.00 Fair CLR 97.3 66.7 37% 102 30.04 0.0
02 15:35 W 3 10.00 Fair CLR 96.4 67.5 39% 101 30.05 0.0
02 15:15 NW 5 10.00 Fair CLR 95.9 67.3 39% 100 30.05 0.0
02 14:55 W 5 10.00 Fair CLR 97 67.1 38% 101 30.06 0.0
02 14:35 W 5 10.00 Fair CLR 96.3 67.3 39% 101 30.07 0.0
02 14:15 SW 6 10.00 Fair CLR 96.4 68.5 40% 102 30.08 0.0
02 13:55 W 6 10.00 Partly Cloudy SCT065 96.8 67.8 39% 102 30.08 0.0
02 13:35 NW 5 10.00 Fair CLR 95.5 68.2 41% 101 30.09 0.0
02 13:15 W 5 10.00 Fair CLR 95.7 68.2 41% 101 30.1 0.0
02 12:55 Calm 10.00 Fair CLR 95.4 68.4 95.7 70.3 41% 100 30.1 0.0
02 12:35 Calm 10.00 Fair CLR 94.1 68.4 43% 99 30.11 0.0
02 12:15 Calm 10.00 Fair CLR 94.3 69.1 44% 100 30.11 0.0
02 11:55 Calm 10.00 Fair CLR 93.4 70 47% 99 30.12 0.0
02 11:35 W 5 10.00 Fair CLR 92.8 70 47% 99 30.13 0.0
02 11:15 Calm 10.00 Fair CLR 92.1 70 48% 98 30.13 0.0
02 10:55 W 6 10.00 Fair CLR 91.2 70 50% 97 30.14 0.0
02 10:35 NW 5 10.00 Fair CLR 91.4 71.2 52% 98 30.14 0.0
02 10:15 W 3 10.00 Fair CLR 90.5 73.2 57% 99 30.14 0.0
02 09:55 W 5 7.00 Fair CLR 88.9 71.8 57% 96 30.14 0.0
02 09:35 Calm 10.00 Fair CLR 87.4 71.8 60% 94 30.14 0.0
02 09:15 Calm 10.00 Fair CLR 85.1 72.3 66% 91 30.13 0.0
02 08:55 Calm 10.00 Fair CLR 83.5 72.5 70% 89 30.13 0.0
02 08:35 Calm 10.00 Fair CLR 81.5 73 76% 87 30.14 0.0
02 08:15 Calm 10.00 Fair CLR 79.9 72.1 77% 84 30.14 0.0
02 07:55 Calm 10.00 Fair CLR 77.5 72.1 84% 79 30.13 0.0
02 07:35 Calm 10.00 Fair CLR 73.9 73 97% 30.13 0.0
02 07:15 Calm 10.00 Fair CLR 71.8 71.8 100% 30.13 0.0
02 06:55 Calm 10.00 Fair CLR 70 70 73.6 68.5 100% 30.13 0.0
02 06:35 Calm 5.00 Fog/Mist CLR 68.9 68.9 100% 30.12 0.0
02 06:15 Calm 5.00 Fog/Mist CLR 68.7 68.7 100% 30.11 0.0
02 05:55 Calm 7.00 Fair CLR 68.9 68.9 100% 30.11 0.0
02 05:35 Calm 10.00 Fair CLR 69.8 69.8 100% 30.1 0.0
02 05:15 Calm 10.00 Fair CLR 70.2 70.2 100% 30.09 0.0
02 04:55 Calm 10.00 Fair CLR 69.8 69.8 100% 30.09 0.0
02 04:35 Calm 10.00 Fair CLR 70.2 70.2 100% 30.09 0.0
02 04:15 Calm 10.00 Fair CLR 70.9 70.9 100% 30.09 0.0
02 03:55 Calm 10.00 Fair CLR 70.9 70.9 100% 30.08 0.0
02 03:35 Calm 10.00 Fair CLR 70.7 70.7 100% 30.08 0.0
02 03:15 Calm 10.00 Fair CLR 70.5 70.5 100% 30.08 0.0
02 02:55 Calm 10.00 Fair CLR 71.2 71.2 100% 30.08 0.0
02 02:35 Calm 10.00 Fair CLR 71.4 71.4 100% 30.08 0.0
02 02:15 Calm 10.00 Fair CLR 70.9 70.9 100% 30.08 0.0
02 01:55 Calm 10.00 Fair CLR 72.5 72.1 99% 30.08 0.0
02 01:35 Calm 10.00 Fair CLR 72.9 72.5 99% 30.08 0.0
02 01:15 Calm 10.00 Fair CLR 72.5 72 98% 30.08 0.0
02 00:55 Calm 10.00 Fair CLR 72.9 72.7 85.8 72.5 99% 30.08 0.0
02 00:35 Calm 10.00 Fair CLR 73.4 72.5 97% 30.08 0.0
02 00:15 Calm 10.00 Fair CLR 72.7 71.8 97% 30.08 0.0
01 23:55 Calm 10.00 Fair CLR 73.4 71.8 95% 30.08 0.0
01 23:35 Calm 10.00 Fair CLR 74.1 72 93% 30.08 0.0
01 23:15 Calm 10.00 Fair CLR 73.6 71.8 94% 30.08 0.0
01 22:55 Calm 10.00 Fair CLR 74.8 72.3 92% 30.08 0.0
01 22:35 Calm 10.00 Fair CLR 75 71.6 89% 74 30.08 0.0
01 22:15 Calm 10.00 Fair CLR 75.4 71.4 88% 75 30.08 0.0
01 21:55 Calm 10.00 Fair CLR 77.4 71.8 83% 79 30.08 0.0
01 21:35 Calm 10.00 Fair CLR 77.9 71.6 81% 80 30.08 0.0
01 21:15 Calm 10.00 Fair CLR 77.9 71.2 80% 80 30.08 0.0
01 20:55 Calm 10.00 Fair CLR 79 70.9 76% 82 30.07 0.0
01 20:35 Calm 10.00 Fair CLR 79.7 70.7 74% 83 30.07 0.0
01 20:15 Calm 10.00 Fair CLR 79.7 71.1 75% 83 30.06 0.0
01 19:55 NE 3 10.00 Fair CLR 79.5 71.6 77% 83 30.06 0.0
01 19:35 Calm 10.00 Fair CLR 80.8 71.6 74% 85 30.05 0.0
01 19:15 Calm 10.00 Fair CLR 83.8 71.8 67% 89 30.05 0.0
01 18:55 Calm 10.00 Fair CLR 85.8 70.2 96.3 85.8 60% 91 30.04 0.0
01 18:35 Calm 10.00 Fair CLR 88.7 71.1 56% 95 30.05 0.0
01 18:15 Calm 10.00 Fair CLR 92.3 70.7 49% 99 30.05 0.0
01 17:55 SW 3 10.00 Fair CLR 94.5 67.1 41% 98 30.05 0.0
01 17:35 W 5 10.00 Fair CLR 94.6 68.2 42% 99 30.05 0.0
01 17:15 Calm 10.00 Fair CLR 95 68.2 42% 100 30.05 0.0
01 16:55 Calm 10.00 Fair CLR 95 67.5 41% 99 30.05 0.0
01 16:35 W 6 10.00 Fair CLR 95.9 67.8 40% 101 30.05 0.0
01 16:15 SE 3 10.00 Fair CLR 96.1 68.4 40% 101 30.05 0.0
01 15:55 S 6 10.00 Fair CLR 95.7 68.4 41% 101 30.06 0.0
01 15:35 W 3 10.00 Fair CLR 95.4 68.4 41% 100 30.07 0.0
01 15:15 Calm 10.00 Fair CLR 95 67.8 41% 100 30.07 0.0
01 14:55 W 6 10.00 Partly Cloudy SCT060 95.4 68.5 42% 101 30.08 0.0
01 14:35 W 6 10.00 Partly Cloudy SCT060 95.2 69.3 43% 101 30.09 0.0
01 14:15 NW 3 10.00 Partly Cloudy SCT060 SCT075 94.6 69.1 43% 100 30.1 0.0
01 13:55 Calm 10.00 Mostly Cloudy BKN060 BKN075 91.8 69.4 48% 97 30.1 0.0
01 13:35 NW 6 10.00 Partly Cloudy SCT060 93.9 69.6 45% 100 30.1 0.0
01 13:15 NW 3 10.00 Partly Cloudy SCT060 SCT075 94.8 69.3 43% 101 30.11 0.0
01 12:55 N 5 10.00 Partly Cloudy SCT060 SCT075 92.8 70 93.9 69.6 47% 99 30.11 0.0
01 12:35 W 5 10.00 Mostly Cloudy SCT050 SCT075 BKN080 91.2 69.6 49% 97 30.12 0.0
01 12:15 Calm 10.00 Mostly Cloudy BKN050 BKN070 92.1 69.6 48% 98 30.13 0.0
01 11:55 W 10 10.00 Partly Cloudy SCT049 SCT065 93 70.7 48% 100 30.13 0.0
01 11:35 W 6 10.00 Fair CLR 91.8 70.5 50% 98 30.14 0.0
01 11:15 NW 7 10.00 Fair CLR 90.9 70.5 51% 97 30.14 0.0
01 10:55 W 5 10.00 Fair CLR 90.5 71.2 53% 97 30.15 0.0
01 10:35 NW 7 10.00 Fair CLR 89.2 71.8 56% 96 30.15 0.0
01 10:15 W 6 10.00 Fair CLR 88.5 71.8 58% 95 30.15 0.0
01 09:55 W 6 10.00 Fair CLR 87.3 71.8 60% 94 30.15 0.0
01 09:35 SW 6 10.00 Fair CLR 85.6 72.9 66% 92 30.15 0.0
01 09:15 Calm 10.00 Fair CLR 82.6 72.5 72% 88 30.16 0.0
01 08:55 SW 3 10.00 Fair CLR 82 71.8 71% 87 30.15 0.0
01 08:35 SW 3 10.00 Fair CLR 80.4 72 76% 84 30.15 0.0
01 08:15 Calm 10.00 Fair CLR 78.8 71.4 78% 82 30.16 0.0
01 07:55 Calm 10.00 Fair CLR 76.5 72.5 88% 77 30.15 0.0
01 07:35 Calm 10.00 Fair CLR 74.1 71.8 92% 30.15 0.0
01 07:15 Calm 10.00 Fair CLR 71.6 71.6 100% 30.15 0.0
01 06:35 Calm 5.00 Fog/Mist CLR 68.4 68.4 100% 30.13 0.0
01 06:15 Calm 7.00 Fair CLR 68.9 68.9 100% 30.12 0.0
01 05:55 Calm 10.00 Fair CLR 69.1 69.1 100% 30.11 0.0
01 05:35 Calm 10.00 Fair CLR 69.4 69.4 100% 30.11 0.0
01 05:15 Calm 10.00 Fair CLR 70.3 70.3 100% 30.1 0.0
01 04:55 Calm 7.00 Fair CLR 69.4 69.4 100% 30.1 0.0
01 04:35 Calm 10.00 Fair CLR 69.8 69.8 100% 30.09 0.0
01 04:15 Calm 7.00 Fair CLR 68.9 68.9 100% 30.09 0.0
01 03:55 Calm 5.00 Fog/Mist CLR 68.4 68.4 100% 30.09 0.0
01 03:35 Calm 7.00 Fair CLR 69.1 69.1 100% 30.09 0.0
01 03:15 Calm 10.00 Fair CLR 70.3 70.3 100% 30.09 0.0
01 02:55 Calm 10.00 Fair CLR 70.2 70.2 100% 30.09 0.0
01 02:35 Calm 10.00 Fair CLR 70.5 70.5 100% 30.09 0.0
01 02:15 Calm 10.00 Fair CLR 70.5 70.5 100% 30.09 0.0
01 01:55 Calm 10.00 Fair CLR 71.4 71.4 100% 30.09 0.0
01 01:35 Calm 10.00 Fair CLR 71.2 71.2 100% 30.09 0.0
01 01:15 Calm 10.00 Fair CLR 71.6 71.6 100% 30.1 0.0
01 00:55 Calm 10.00 Fair CLR 71.6 71.6 85.1 71.4 100% 30.1 0.0
01 00:35 Calm 10.00 Fair CLR 71.4 71.4 100% 30.1 0.0
01 00:15 Calm 10.00 Fair CLR 71.6 71.6 100% 30.1 0.0
31 23:55 Calm 10.00 Fair CLR 72.1 71.4 98% 30.11 0.0
31 23:35 Calm 10.00 Fair CLR 72.5 72.3 99% 30.11 0.0
31 23:15 Calm 10.00 Fair CLR 74.5 71.6 91% 30.1 0.0
Date Time (cdt) Wind (mph) Vis. (mi.) Weather Sky Cond. Air Dwpt Max. Min. Relative Humidity Wind Chill (°F) Heat Index (°F) altimeter (in) sea level (mb) 1 hr 3 hr 6 hr
6 hour
Temperature (ºF) Pressure Precipitation (in)